createdAt,value
2023-05-09T00:00:25.374Z,99.90
2023-05-09T00:02:52.143Z,99.90
2023-05-09T00:05:19.276Z,99.90
2023-05-09T00:07:45.870Z,99.90
2023-05-09T00:10:12.517Z,99.90
2023-05-09T00:12:39.220Z,99.90
2023-05-09T00:15:08.236Z,99.90
2023-05-09T00:17:36.323Z,99.90
2023-05-09T00:20:05.156Z,99.90
2023-05-09T00:22:31.818Z,99.90
2023-05-09T00:24:58.466Z,99.90
2023-05-09T00:27:25.168Z,99.90
2023-05-09T00:29:51.789Z,99.90
2023-05-09T00:32:18.433Z,99.90
2023-05-09T00:34:45.104Z,99.90
2023-05-09T00:37:11.693Z,99.90
2023-05-09T00:39:38.302Z,99.90
2023-05-09T00:42:05.015Z,99.90
2023-05-09T00:44:31.616Z,99.90
2023-05-09T00:46:58.460Z,99.90
2023-05-09T00:49:25.104Z,99.90
2023-05-09T00:51:52.587Z,99.90
2023-05-09T00:54:19.360Z,99.90
2023-05-09T00:56:46.218Z,99.90
2023-05-09T00:59:12.896Z,99.90
2023-05-09T01:01:39.508Z,99.90
2023-05-09T01:04:06.197Z,99.90
2023-05-09T01:06:42.491Z,99.90
2023-05-09T01:09:28.887Z,99.90
2023-05-09T01:12:33.524Z,99.90
2023-05-09T01:15:16.180Z,99.90
2023-05-09T01:18:12.386Z,99.90
2023-05-09T01:20:45.865Z,99.90
2023-05-09T01:23:44.423Z,99.90
2023-05-09T01:26:36.501Z,99.90
2023-05-09T01:29:31.662Z,99.90
2023-05-09T01:32:01.305Z,99.90
2023-05-09T01:34:30.372Z,99.90
2023-05-09T01:37:00.800Z,99.90
2023-05-09T01:39:31.547Z,99.90
2023-05-09T01:42:02.546Z,99.90
2023-05-09T01:44:38.133Z,99.90
2023-05-09T01:47:07.618Z,99.90
2023-05-09T01:49:37.617Z,99.90
2023-05-09T01:52:09.769Z,99.90
2023-05-09T01:54:39.173Z,99.90
2023-05-09T01:57:07.994Z,99.90
2023-05-09T01:59:36.223Z,99.90
2023-05-09T02:02:07.496Z,99.90
2023-05-09T02:04:35.730Z,99.90
2023-05-09T02:07:05.390Z,99.90
2023-05-09T02:09:32.187Z,99.90
2023-05-09T02:11:58.967Z,99.90
2023-05-09T02:14:26.070Z,99.90
2023-05-09T02:16:52.862Z,99.90
2023-05-09T02:19:20.405Z,99.90
2023-05-09T02:21:47.860Z,99.90
2023-05-09T02:24:14.675Z,99.90
2023-05-09T02:26:41.890Z,99.90
2023-05-09T02:29:10.668Z,99.90
2023-05-09T02:31:40.097Z,99.90
2023-05-09T02:34:08.492Z,99.90
2023-05-09T02:36:35.592Z,99.90
2023-05-09T02:39:02.572Z,99.90
2023-05-09T02:41:30.767Z,99.90
2023-05-09T02:43:57.393Z,99.90
2023-05-09T02:46:24.064Z,99.90
2023-05-09T02:48:51.338Z,99.90
2023-05-09T02:51:17.968Z,99.90
2023-05-09T02:53:44.575Z,99.90
2023-05-09T02:56:11.598Z,99.90
2023-05-09T02:58:38.368Z,99.90
2023-05-09T03:01:05.192Z,99.90
2023-05-09T03:03:33.955Z,99.90
2023-05-09T03:06:02.865Z,99.90
2023-05-09T03:08:29.495Z,99.90
2023-05-09T03:10:56.097Z,99.90
2023-05-09T03:13:23.279Z,99.90
2023-05-09T03:15:49.978Z,99.90
2023-05-09T03:18:17.183Z,99.90
2023-05-09T03:20:43.775Z,99.90
2023-05-09T03:23:10.492Z,99.90
2023-05-09T03:25:37.382Z,99.90
2023-05-09T03:28:04.977Z,99.90
2023-05-09T03:30:31.647Z,99.90
2023-05-09T03:32:58.572Z,99.90
2023-05-09T03:35:25.253Z,99.90
2023-05-09T03:37:53.705Z,99.90
2023-05-09T03:40:20.560Z,99.90
2023-05-09T03:42:53.529Z,99.90
2023-05-09T03:45:20.286Z,99.90
2023-05-09T03:47:47.426Z,99.90
2023-05-09T03:50:14.625Z,99.90
2023-05-09T03:52:42.448Z,99.90
2023-05-09T03:55:09.585Z,99.90
2023-05-09T03:57:37.320Z,99.90
2023-05-09T04:00:06.122Z,99.90
2023-05-09T04:02:41.148Z,99.90
2023-05-09T04:05:10.838Z,99.90
2023-05-09T04:07:38.159Z,99.90
2023-05-09T04:10:06.249Z,99.90
2023-05-09T04:12:32.910Z,99.90
2023-05-09T04:14:59.593Z,99.90
2023-05-09T04:17:26.907Z,99.90
2023-05-09T04:19:53.914Z,99.90
2023-05-09T04:22:20.569Z,99.90
2023-05-09T04:24:47.725Z,99.90
2023-05-09T04:27:14.365Z,99.90
2023-05-09T04:29:41.814Z,99.90
2023-05-09T04:32:09.385Z,99.90
2023-05-09T04:34:36.266Z,99.90
2023-05-09T04:37:09.847Z,99.90
2023-05-09T04:39:36.568Z,99.90
2023-05-09T04:42:12.456Z,99.90
2023-05-09T04:44:39.059Z,99.90
2023-05-09T04:47:05.903Z,99.90
2023-05-09T04:49:32.550Z,99.90
2023-05-09T04:51:59.150Z,99.90
2023-05-09T04:54:25.953Z,99.90
2023-05-09T04:57:00.292Z,99.90
2023-05-09T04:59:35.445Z,99.90
2023-05-09T05:02:03.456Z,99.90
2023-05-09T05:04:30.590Z,99.90
2023-05-09T05:06:57.886Z,99.90
2023-05-09T05:09:24.730Z,99.90
2023-05-09T05:12:00.884Z,99.90
2023-05-09T05:14:29.392Z,99.90
2023-05-09T05:16:56.587Z,99.90
2023-05-09T05:19:23.974Z,99.90
2023-05-09T05:21:50.689Z,99.90
2023-05-09T05:24:17.554Z,99.90
2023-05-09T05:26:45.391Z,99.90
2023-05-09T05:29:12.371Z,99.90
2023-05-09T05:31:39.085Z,99.90
2023-05-09T05:34:05.730Z,99.90
2023-05-09T05:36:33.269Z,99.90
2023-05-09T05:38:59.929Z,99.90
2023-05-09T05:41:26.982Z,99.90
2023-05-09T05:43:54.516Z,99.90
2023-05-09T05:46:21.582Z,99.90
2023-05-09T05:48:48.370Z,99.90
2023-05-09T05:51:15.062Z,99.90
2023-05-09T05:53:42.306Z,99.90
2023-05-09T05:56:09.708Z,99.90
2023-05-09T05:58:36.483Z,99.90
2023-05-09T06:01:06.201Z,99.90
2023-05-09T06:03:33.048Z,99.90
2023-05-09T06:06:03.793Z,99.90
2023-05-09T06:08:31.107Z,99.90
2023-05-09T06:10:58.403Z,99.90
2023-05-09T06:13:25.176Z,99.90
2023-05-09T06:16:01.991Z,99.90
2023-05-09T06:18:37.496Z,99.90
2023-05-09T06:21:04.511Z,99.90
2023-05-09T06:23:31.179Z,99.90
2023-05-09T06:25:57.789Z,99.90
2023-05-09T06:28:24.520Z,99.90
2023-05-09T06:30:51.131Z,99.90
2023-05-09T06:33:17.744Z,99.90
2023-05-09T06:35:44.336Z,99.90
2023-05-09T06:38:11.017Z,99.90
2023-05-09T06:40:37.675Z,99.90
2023-05-09T06:43:04.339Z,99.90
2023-05-09T06:45:31.079Z,99.90
2023-05-09T06:47:57.754Z,99.90
2023-05-09T06:50:24.413Z,99.90
2023-05-09T06:52:51.057Z,99.90
2023-05-09T06:55:17.766Z,99.90
2023-05-09T06:57:44.495Z,99.90
2023-05-09T07:00:11.727Z,99.90
2023-05-09T07:02:41.765Z,99.90
2023-05-09T07:05:10.015Z,99.90
2023-05-09T07:07:36.776Z,99.90
2023-05-09T07:10:11.105Z,99.90
2023-05-09T07:12:38.299Z,99.90
2023-05-09T07:15:06.216Z,99.90
2023-05-09T07:17:32.974Z,99.90
2023-05-09T07:19:59.671Z,99.90
2023-05-09T07:22:26.380Z,99.90
2023-05-09T07:24:53.239Z,99.90
2023-05-09T07:27:19.904Z,99.90
2023-05-09T07:29:46.515Z,99.90
2023-05-09T07:32:13.288Z,99.90
2023-05-09T07:34:40.077Z,99.90
2023-05-09T07:37:06.654Z,99.90
2023-05-09T07:39:33.339Z,99.90
2023-05-09T07:41:59.915Z,99.90
2023-05-09T07:44:26.519Z,99.90
2023-05-09T07:46:55.287Z,99.90
2023-05-09T07:49:22.962Z,99.90
2023-05-09T07:51:49.622Z,99.90
2023-05-09T07:54:16.370Z,99.90
2023-05-09T07:56:43.082Z,99.90
2023-05-09T07:59:09.690Z,99.90
2023-05-09T08:01:36.342Z,99.90
2023-05-09T08:04:05.070Z,99.90
2023-05-09T08:06:32.089Z,99.90
2023-05-09T08:08:58.919Z,99.90
2023-05-09T08:11:25.671Z,99.90
2023-05-09T08:13:52.400Z,99.90
2023-05-09T08:16:19.145Z,99.90
2023-05-09T08:18:45.829Z,99.90
2023-05-09T08:21:12.442Z,99.90
2023-05-09T08:23:40.450Z,99.90
2023-05-09T08:26:07.126Z,99.90
2023-05-09T08:28:33.774Z,99.90
2023-05-09T08:31:00.596Z,99.90
2023-05-09T08:33:27.259Z,99.90
2023-05-09T08:35:54.631Z,99.90
2023-05-09T08:38:21.467Z,99.90
2023-05-09T08:40:48.355Z,99.90
2023-05-09T08:43:19.073Z,99.90
2023-05-09T08:45:58.869Z,99.90
2023-05-09T08:48:27.571Z,99.90
2023-05-09T08:50:55.911Z,99.90
2023-05-09T08:53:23.007Z,99.90
2023-05-09T08:55:52.784Z,99.90
2023-05-09T08:58:22.359Z,99.90
2023-05-09T09:00:50.485Z,99.90
2023-05-09T09:03:18.206Z,99.50
2023-05-09T09:05:46.673Z,99.90
2023-05-09T09:08:14.381Z,99.90
2023-05-09T09:10:48.266Z,99.40
2023-05-09T09:13:17.360Z,98.80
2023-05-09T09:15:46.089Z,98.80
2023-05-09T09:18:22.008Z,97.40
2023-05-09T09:20:52.064Z,96.10
2023-05-09T09:23:20.822Z,97.90
2023-05-09T09:25:48.120Z,97.60
2023-05-09T09:28:15.532Z,97.90
2023-05-09T09:30:47.727Z,97.00
2023-05-09T09:33:20.645Z,96.40
2023-05-09T09:35:51.625Z,96.00
2023-05-09T09:38:19.665Z,96.50
2023-05-09T09:40:52.244Z,95.20
2023-05-09T09:43:19.061Z,95.50
2023-05-09T09:45:50.807Z,94.60
2023-05-09T09:48:17.497Z,93.40
2023-05-09T09:50:44.219Z,94.10
2023-05-09T09:53:10.851Z,93.90
2023-05-09T09:55:37.590Z,94.40
2023-05-09T09:58:15.699Z,94.10
2023-05-09T10:00:42.309Z,93.20
2023-05-09T10:03:15.415Z,94.10
2023-05-09T10:05:42.294Z,91.80
2023-05-09T10:08:09.676Z,93.80
2023-05-09T10:10:38.042Z,92.90
2023-05-09T10:13:11.799Z,94.10
2023-05-09T10:15:52.399Z,94.70
2023-05-09T10:18:25.438Z,94.20
2023-05-09T10:20:53.268Z,92.90
2023-05-09T10:23:20.749Z,91.60
2023-05-09T10:25:52.527Z,94.10
2023-05-09T10:28:27.196Z,94.40
2023-05-09T10:30:59.504Z,93.40
2023-05-09T10:33:48.989Z,91.30
2023-05-09T10:36:20.670Z,93.00
2023-05-09T10:38:48.840Z,93.20
2023-05-09T10:41:17.400Z,92.80
2023-05-09T10:43:45.614Z,93.30
2023-05-09T10:46:13.471Z,91.90
2023-05-09T10:48:41.992Z,91.80
2023-05-09T10:51:09.254Z,91.10
2023-05-09T10:53:45.924Z,90.90
2023-05-09T10:56:33.676Z,90.20
2023-05-09T10:59:00.840Z,90.20
2023-05-09T11:01:37.241Z,90.40
2023-05-09T11:04:12.549Z,91.80
2023-05-09T11:06:42.704Z,90.10
2023-05-09T11:09:34.866Z,89.90
2023-05-09T11:12:11.955Z,91.10
2023-05-09T11:14:43.109Z,90.60
2023-05-09T11:17:15.308Z,90.40
2023-05-09T11:19:47.947Z,90.80
2023-05-09T11:22:28.972Z,91.30
2023-05-09T11:25:04.801Z,91.80
2023-05-09T11:27:49.418Z,91.90
2023-05-09T11:30:20.587Z,91.40
2023-05-09T11:32:58.690Z,92.40
2023-05-09T11:35:28.651Z,91.90
2023-05-09T11:38:06.073Z,92.30
2023-05-09T11:40:34.544Z,92.60
2023-05-09T11:43:01.949Z,93.70
2023-05-09T11:45:30.663Z,92.10
2023-05-09T11:47:58.400Z,91.70
2023-05-09T11:50:25.623Z,92.10
2023-05-09T11:52:54.406Z,91.50
2023-05-09T11:55:30.240Z,92.70
2023-05-09T11:57:57.179Z,91.30
2023-05-09T12:00:25.288Z,91.30
2023-05-09T12:02:53.524Z,92.20
2023-05-09T12:05:22.596Z,91.00
2023-05-09T12:07:49.577Z,91.30
2023-05-09T12:10:19.942Z,90.80
2023-05-09T12:12:48.401Z,91.80
2023-05-09T12:15:15.674Z,91.30
2023-05-09T12:17:47.286Z,91.00
2023-05-09T12:20:15.016Z,91.20
2023-05-09T12:22:44.922Z,90.20
2023-05-09T12:25:11.963Z,90.00
2023-05-09T12:27:40.644Z,90.00
2023-05-09T12:30:10.096Z,90.30
2023-05-09T12:32:39.368Z,89.10
2023-05-09T12:35:10.904Z,89.10
2023-05-09T12:37:38.351Z,90.40
2023-05-09T12:40:12.963Z,90.20
2023-05-09T12:42:43.055Z,88.20
2023-05-09T12:45:10.288Z,89.40
2023-05-09T12:47:38.876Z,89.00
2023-05-09T12:50:07.342Z,88.90
2023-05-09T12:52:58.473Z,90.00
2023-05-09T12:55:29.094Z,87.40
2023-05-09T12:58:01.495Z,88.30
2023-05-09T13:00:28.485Z,89.70
2023-05-09T13:02:55.355Z,89.70
2023-05-09T13:05:23.381Z,86.10
2023-05-09T13:07:56.924Z,88.20
2023-05-09T13:10:25.997Z,88.90
2023-05-09T13:12:53.304Z,88.80
2023-05-09T13:15:26.698Z,90.80
2023-05-09T13:17:54.158Z,92.20
2023-05-09T13:20:21.124Z,91.80
2023-05-09T13:22:47.763Z,91.50
2023-05-09T13:25:15.937Z,92.30
2023-05-09T13:27:42.512Z,93.00
2023-05-09T13:30:09.407Z,93.50
2023-05-09T13:32:36.458Z,91.80
2023-05-09T13:35:04.493Z,91.00
2023-05-09T13:37:31.175Z,90.60
2023-05-09T13:39:58.092Z,90.40
2023-05-09T13:42:24.910Z,91.40
2023-05-09T13:44:51.534Z,93.20
2023-05-09T13:47:18.123Z,91.80
2023-05-09T13:49:44.744Z,92.40
2023-05-09T13:52:11.921Z,92.90
2023-05-09T13:54:38.740Z,91.70
2023-05-09T13:57:05.445Z,91.20
2023-05-09T13:59:32.254Z,90.10
2023-05-09T14:02:00.337Z,90.60
2023-05-09T14:04:28.432Z,91.40
2023-05-09T14:06:55.777Z,91.30
2023-05-09T14:09:23.001Z,91.30
2023-05-09T14:11:53.016Z,91.30
2023-05-09T14:14:21.162Z,91.70
2023-05-09T14:16:48.738Z,93.00
2023-05-09T14:19:15.945Z,92.30
2023-05-09T14:21:43.380Z,92.00
2023-05-09T14:24:14.253Z,91.70
2023-05-09T14:26:42.384Z,91.60
2023-05-09T14:29:09.178Z,89.80
2023-05-09T14:31:35.963Z,90.70
2023-05-09T14:34:04.579Z,90.80
2023-05-09T14:36:32.312Z,90.60
2023-05-09T14:38:58.950Z,91.30
2023-05-09T14:41:25.871Z,92.00
2023-05-09T14:43:52.509Z,93.60
2023-05-09T14:46:19.374Z,94.70
2023-05-09T14:48:46.011Z,94.70
2023-05-09T14:51:12.672Z,95.50
2023-05-09T14:53:41.521Z,96.10
2023-05-09T14:56:09.307Z,96.90
2023-05-09T14:58:36.007Z,97.10
2023-05-09T15:01:04.082Z,96.90
2023-05-09T15:03:30.851Z,96.90
2023-05-09T15:05:58.599Z,96.90
2023-05-09T15:08:25.825Z,97.80
2023-05-09T15:10:52.702Z,99.90
2023-05-09T15:13:19.467Z,99.90
2023-05-09T15:15:46.202Z,99.90
2023-05-09T15:18:15.379Z,99.90
2023-05-09T15:20:42.688Z,99.90
2023-05-09T15:23:09.480Z,99.90
2023-05-09T15:25:36.397Z,99.90
2023-05-09T15:28:03.003Z,99.90
2023-05-09T15:30:29.660Z,99.90
2023-05-09T15:32:56.576Z,99.90
2023-05-09T15:35:23.340Z,99.90
2023-05-09T15:37:50.194Z,99.90
2023-05-09T15:40:17.001Z,99.90
2023-05-09T15:42:43.836Z,99.90
2023-05-09T15:45:10.639Z,99.90
2023-05-09T15:47:37.409Z,99.90
2023-05-09T15:50:04.443Z,99.90
2023-05-09T15:52:31.151Z,99.90
2023-05-09T15:54:57.972Z,99.90
2023-05-09T15:57:24.956Z,99.90
2023-05-09T15:59:54.311Z,99.90
2023-05-09T16:02:22.072Z,99.90
2023-05-09T16:04:48.750Z,99.90
2023-05-09T16:07:15.374Z,99.90
2023-05-09T16:09:43.374Z,99.90
2023-05-09T16:12:10.160Z,99.90
2023-05-09T16:14:36.874Z,99.90
2023-05-09T16:17:04.413Z,99.90
2023-05-09T16:19:31.228Z,99.90
2023-05-09T16:21:58.456Z,99.90
2023-05-09T16:24:25.110Z,99.90
2023-05-09T16:26:51.723Z,99.90
2023-05-09T16:29:18.335Z,99.90
2023-05-09T16:31:45.051Z,99.90
2023-05-09T16:34:11.940Z,99.90
2023-05-09T16:36:39.351Z,99.90
2023-05-09T16:39:06.036Z,99.90
2023-05-09T16:41:32.778Z,99.90
2023-05-09T16:44:00.100Z,99.90
2023-05-09T16:46:26.735Z,99.90
2023-05-09T16:48:53.394Z,99.90
2023-05-09T16:51:20.075Z,99.90
2023-05-09T16:53:46.711Z,99.90
2023-05-09T16:56:13.553Z,99.90
2023-05-09T16:58:40.193Z,99.90
2023-05-09T17:01:06.965Z,99.90
2023-05-09T17:03:34.135Z,99.90
2023-05-09T17:06:00.739Z,99.90
2023-05-09T17:08:27.356Z,99.90
2023-05-09T17:10:54.010Z,99.90
2023-05-09T17:13:20.747Z,99.90
2023-05-09T17:15:47.587Z,99.90
2023-05-09T17:18:22.307Z,99.90
2023-05-09T17:20:56.580Z,99.90
2023-05-09T17:23:23.935Z,99.90
2023-05-09T17:25:51.245Z,99.90
2023-05-09T17:28:17.837Z,99.90
2023-05-09T17:30:44.582Z,99.90
2023-05-09T17:33:11.435Z,99.90
2023-05-09T17:35:38.134Z,99.90
2023-05-09T17:38:05.198Z,99.90
2023-05-09T17:40:31.792Z,99.90
2023-05-09T17:42:58.468Z,99.90
2023-05-09T17:45:25.095Z,99.90
2023-05-09T17:47:51.836Z,99.90
2023-05-09T17:50:20.167Z,99.90
2023-05-09T17:52:49.283Z,99.90
2023-05-09T17:55:16.008Z,99.90
2023-05-09T17:57:43.256Z,99.90
2023-05-09T18:00:10.746Z,99.90
2023-05-09T18:02:40.522Z,99.90
2023-05-09T18:05:11.078Z,99.90
2023-05-09T18:07:39.867Z,99.90
2023-05-09T18:10:08.819Z,99.90
2023-05-09T18:12:37.249Z,99.90
2023-05-09T18:15:04.783Z,99.90
2023-05-09T18:17:31.727Z,99.90
2023-05-09T18:19:58.489Z,99.90
2023-05-09T18:22:25.469Z,99.90
2023-05-09T18:24:52.804Z,99.90
2023-05-09T18:27:19.408Z,99.90
2023-05-09T18:29:47.367Z,99.90
2023-05-09T18:32:14.073Z,99.90
2023-05-09T18:34:41.482Z,99.90
2023-05-09T18:37:08.431Z,99.90
2023-05-09T18:39:35.049Z,99.90
2023-05-09T18:42:01.878Z,99.90
2023-05-09T18:44:29.598Z,99.90
2023-05-09T18:46:57.738Z,99.90
2023-05-09T18:49:27.173Z,99.90
2023-05-09T18:51:53.827Z,99.90
2023-05-09T18:54:20.564Z,99.90
2023-05-09T18:56:47.290Z,99.90
2023-05-09T18:59:16.153Z,99.90
2023-05-09T19:01:43.935Z,99.90
2023-05-09T19:04:10.915Z,99.90
2023-05-09T19:06:37.767Z,99.90
2023-05-09T19:09:04.668Z,99.90
2023-05-09T19:11:31.541Z,99.90
2023-05-09T19:13:58.200Z,99.90
2023-05-09T19:16:26.391Z,99.90
2023-05-09T19:18:57.064Z,99.90
2023-05-09T19:21:24.312Z,99.90
2023-05-09T19:23:51.056Z,99.90
2023-05-09T19:26:19.287Z,99.90
2023-05-09T19:28:46.854Z,99.90
2023-05-09T19:31:14.684Z,99.90
2023-05-09T19:33:42.711Z,99.90
2023-05-09T19:36:09.427Z,99.90
2023-05-09T19:38:36.030Z,99.90
2023-05-09T19:41:02.695Z,99.90
2023-05-09T19:43:29.365Z,99.90
2023-05-09T19:45:56.151Z,99.90
2023-05-09T19:48:22.844Z,99.90
2023-05-09T19:50:49.469Z,99.90
2023-05-09T19:53:16.152Z,99.90
2023-05-09T19:55:46.700Z,99.90
2023-05-09T19:58:17.451Z,99.90
2023-05-09T20:00:44.780Z,99.90
2023-05-09T20:03:11.708Z,99.90
2023-05-09T20:05:38.445Z,99.90
2023-05-09T20:08:05.176Z,99.90
2023-05-09T20:10:32.872Z,99.90
2023-05-09T20:13:00.742Z,99.90
2023-05-09T20:15:27.737Z,99.90
2023-05-09T20:17:54.439Z,99.90
2023-05-09T20:20:21.336Z,99.90
2023-05-09T20:22:47.971Z,99.90
2023-05-09T20:25:16.391Z,99.90
2023-05-09T20:27:43.046Z,99.90
2023-05-09T20:30:10.659Z,99.90
2023-05-09T20:32:37.323Z,99.90
2023-05-09T20:35:04.273Z,99.90
2023-05-09T20:37:31.139Z,99.90
2023-05-09T20:39:57.842Z,99.90
2023-05-09T20:42:25.621Z,99.90
2023-05-09T20:44:54.590Z,99.90
2023-05-09T20:47:21.531Z,99.90
2023-05-09T20:49:48.192Z,99.90
2023-05-09T20:52:14.895Z,99.90
2023-05-09T20:54:41.733Z,99.90
2023-05-09T20:57:08.421Z,99.90
2023-05-09T20:59:35.156Z,99.90
2023-05-09T21:02:02.540Z,99.90
2023-05-09T21:04:29.233Z,99.90
2023-05-09T21:06:55.985Z,99.90
2023-05-09T21:09:22.635Z,99.90
2023-05-09T21:11:49.278Z,99.90
2023-05-09T21:14:15.899Z,99.90
2023-05-09T21:16:43.898Z,99.90
2023-05-09T21:19:10.853Z,99.90
2023-05-09T21:21:37.689Z,99.90
2023-05-09T21:24:08.903Z,99.90
2023-05-09T21:26:36.290Z,99.90
2023-05-09T21:29:03.130Z,99.90
2023-05-09T21:31:29.817Z,99.90
2023-05-09T21:33:56.723Z,99.90
2023-05-09T21:36:23.958Z,99.90
2023-05-09T21:38:50.908Z,99.90
2023-05-09T21:41:17.883Z,99.90
2023-05-09T21:43:44.536Z,99.90
2023-05-09T21:46:11.297Z,99.90
2023-05-09T21:48:37.978Z,99.90
2023-05-09T21:51:04.960Z,99.90
2023-05-09T21:53:31.830Z,99.90
2023-05-09T21:55:58.417Z,99.90
2023-05-09T21:58:25.130Z,99.90
2023-05-09T22:00:52.004Z,99.90
2023-05-09T22:03:18.731Z,99.90
2023-05-09T22:05:45.381Z,99.90
2023-05-09T22:08:12.124Z,99.90
2023-05-09T22:10:38.826Z,99.90
2023-05-09T22:13:05.538Z,99.90
2023-05-09T22:15:32.446Z,99.90
2023-05-09T22:17:59.276Z,99.90
2023-05-09T22:20:26.027Z,99.90
2023-05-09T22:22:52.682Z,99.90
2023-05-09T22:25:19.660Z,99.90
2023-05-09T22:27:46.455Z,99.90
2023-05-09T22:30:13.489Z,99.90
2023-05-09T22:32:40.514Z,99.90
2023-05-09T22:35:07.692Z,99.90
2023-05-09T22:37:34.392Z,99.90
2023-05-09T22:40:01.322Z,99.90
2023-05-09T22:42:29.285Z,99.90
2023-05-09T22:44:56.103Z,99.90
2023-05-09T22:47:22.891Z,99.90
2023-05-09T22:49:50.266Z,99.90
2023-05-09T22:52:17.341Z,99.90
2023-05-09T22:54:44.718Z,99.90
2023-05-09T22:57:11.961Z,99.90
2023-05-09T22:59:39.421Z,99.90
2023-05-09T23:02:06.256Z,99.90
2023-05-09T23:04:32.985Z,99.90
2023-05-09T23:06:59.691Z,99.90
2023-05-09T23:09:26.799Z,99.90
2023-05-09T23:11:54.972Z,99.90
2023-05-09T23:14:21.822Z,99.90
2023-05-09T23:16:49.250Z,99.90
2023-05-09T23:19:16.302Z,99.90
2023-05-09T23:21:42.935Z,99.90
2023-05-09T23:24:09.544Z,99.90
2023-05-09T23:26:36.255Z,99.90
2023-05-09T23:29:02.899Z,99.90
2023-05-09T23:31:29.534Z,99.90
2023-05-09T23:33:56.176Z,99.90
2023-05-09T23:36:22.925Z,99.90
2023-05-09T23:38:49.544Z,99.90
2023-05-09T23:41:16.357Z,99.90
2023-05-09T23:43:43.063Z,99.90
2023-05-09T23:46:09.718Z,99.90
2023-05-09T23:48:36.510Z,99.90
2023-05-09T23:51:03.403Z,99.90
2023-05-09T23:53:32.071Z,99.90
2023-05-09T23:55:58.659Z,99.90
2023-05-09T23:58:25.414Z,99.90
